createdAt,value
2018-06-28T00:00:14.740Z,99.99
2018-06-28T00:01:14.457Z,99.99
2018-06-28T00:02:14.454Z,99.99
2018-06-28T00:03:14.702Z,99.99
2018-06-28T00:04:14.687Z,99.99
2018-06-28T00:05:14.684Z,99.99
2018-06-28T00:06:14.400Z,99.99
2018-06-28T00:07:14.386Z,99.99
2018-06-28T00:08:14.641Z,99.99
2018-06-28T00:09:14.364Z,99.99
2018-06-28T00:10:14.357Z,99.99
2018-06-28T00:11:14.611Z,99.99
2018-06-28T00:12:14.327Z,99.99
2018-06-28T00:13:14.576Z,99.99
2018-06-28T00:14:14.303Z,99.99
2018-06-28T00:15:14.289Z,99.99
2018-06-28T00:16:14.550Z,99.99
2018-06-28T00:17:14.535Z,99.99
2018-06-28T00:18:14.257Z,99.99
2018-06-28T00:19:14.245Z,99.99
2018-06-28T00:20:14.231Z,99.99
2018-06-28T00:21:14.488Z,99.99
2018-06-28T00:22:14.468Z,99.99
2018-06-28T00:23:14.464Z,99.99
2018-06-28T00:24:14.448Z,99.99
2018-06-28T00:25:14.173Z,99.99
2018-06-28T00:26:14.158Z,99.99
2018-06-28T00:27:14.413Z,99.99
2018-06-28T00:28:14.407Z,99.99
2018-06-28T00:29:14.385Z,99.99
2018-06-28T00:30:14.382Z,99.99
2018-06-28T00:31:14.357Z,99.99
2018-06-28T00:32:14.352Z,99.99
2018-06-28T00:33:14.334Z,99.99
2018-06-28T00:34:14.326Z,99.99
2018-06-28T00:35:14.043Z,99.99
2018-06-28T00:36:14.299Z,99.99
2018-06-28T00:37:14.020Z,99.99
2018-06-28T00:38:14.009Z,99.99
2018-06-28T00:39:14.278Z,99.99
2018-06-28T00:40:14.255Z,99.99
2018-06-28T00:41:14.236Z,99.99
2018-06-28T00:42:13.962Z,99.99
2018-06-28T00:43:13.945Z,99.99
2018-06-28T00:44:13.946Z,99.99
2018-06-28T00:45:13.922Z,99.99
2018-06-28T00:46:14.185Z,99.99
2018-06-28T00:47:14.169Z,99.99
2018-06-28T00:48:14.154Z,99.99
2018-06-28T00:49:14.141Z,99.99
2018-06-28T00:50:13.867Z,99.99
2018-06-28T00:51:14.114Z,99.99
2018-06-28T00:52:14.101Z,99.99
2018-06-28T00:53:14.109Z,99.99
2018-06-28T00:54:13.808Z,99.99
2018-06-28T00:55:14.077Z,99.99
2018-06-28T00:56:14.052Z,99.99
2018-06-28T00:57:14.038Z,99.99
2018-06-28T00:58:14.030Z,99.99
2018-06-28T00:59:14.043Z,99.99
2018-06-28T01:00:13.736Z,99.99
2018-06-28T01:01:14.003Z,99.99
2018-06-28T01:02:13.974Z,99.99
2018-06-28T01:03:13.702Z,99.99
2018-06-28T01:04:13.958Z,99.99
2018-06-28T01:05:13.946Z,99.99
2018-06-28T01:06:13.928Z,99.99
2018-06-28T01:07:13.918Z,99.99
2018-06-28T01:08:13.912Z,99.99
2018-06-28T01:09:13.888Z,99.99
2018-06-28T01:10:13.885Z,99.62
2018-06-28T01:11:13.866Z,99.72
2018-06-28T01:12:13.596Z,99.15
2018-06-28T01:13:13.575Z,99.15
2018-06-28T01:14:13.829Z,98.57
2018-06-28T01:15:13.546Z,98.66
2018-06-28T01:16:13.805Z,98.19
2018-06-28T01:17:13.788Z,98.47
2018-06-28T01:18:13.775Z,98.28
2018-06-28T01:19:13.766Z,98.38
2018-06-28T01:20:13.765Z,97.71
2018-06-28T01:21:13.476Z,97.8
2018-06-28T01:22:13.729Z,97.8
2018-06-28T01:23:13.714Z,97.33
2018-06-28T01:24:13.702Z,97.33
2018-06-28T01:25:13.423Z,97.23
2018-06-28T01:26:13.414Z,97.71
2018-06-28T01:27:13.666Z,97.52
2018-06-28T01:28:13.653Z,97.04
2018-06-28T01:29:13.371Z,97.13
2018-06-28T01:30:13.635Z,97.04
2018-06-28T01:31:13.619Z,97.13
2018-06-28T01:32:13.546Z,96.66
2018-06-28T01:33:13.598Z,96.47
2018-06-28T01:34:13.573Z,96.56
2018-06-28T01:35:13.617Z,97.04
2018-06-28T01:36:13.557Z,96.94
2018-06-28T01:37:13.533Z,96.94
2018-06-28T01:38:13.524Z,96.84
2018-06-28T01:39:13.264Z,96.47
2018-06-28T01:40:13.238Z,96.75
2018-06-28T01:41:13.485Z,96.84
2018-06-28T01:42:13.211Z,96.27
2018-06-28T01:43:13.465Z,95.89
2018-06-28T01:44:13.187Z,96.08
2018-06-28T01:45:13.438Z,95.31
2018-06-28T01:46:13.156Z,94.07
2018-06-28T01:47:13.143Z,94.45
2018-06-28T01:48:13.429Z,94.41
2018-06-28T01:49:13.384Z,94.74
2018-06-28T01:50:13.368Z,94.55
2018-06-28T01:51:13.355Z,93.88
2018-06-28T01:52:13.340Z,94.21
2018-06-28T01:53:13.329Z,93.93
2018-06-28T01:54:13.055Z,94.21
2018-06-28T01:55:13.304Z,94.02
2018-06-28T01:56:13.297Z,94.5
2018-06-28T01:57:13.282Z,94.98
2018-06-28T01:58:13.002Z,94.98
2018-06-28T01:59:13.268Z,95.17
2018-06-28T02:00:13.238Z,95.27
2018-06-28T02:01:13.222Z,95.27
2018-06-28T02:02:13.266Z,94.79
2018-06-28T02:03:13.203Z,94.7
2018-06-28T02:04:13.192Z,94.7
2018-06-28T02:05:13.176Z,94.02
2018-06-28T02:06:13.162Z,94.41
2018-06-28T02:07:12.886Z,94.21
2018-06-28T02:08:13.139Z,93.74
2018-06-28T02:09:13.126Z,94.31
2018-06-28T02:10:13.112Z,93.55
2018-06-28T02:11:12.832Z,93.35
2018-06-28T02:12:12.816Z,94.21
2018-06-28T02:13:13.083Z,93.55
2018-06-28T02:14:12.795Z,93.45
2018-06-28T02:15:13.053Z,93.64
2018-06-28T02:16:12.770Z,93.16
2018-06-28T02:17:12.761Z,93.84
2018-06-28T02:18:12.744Z,93.64
2018-06-28T02:19:12.727Z,92.78
2018-06-28T02:20:12.725Z,92.59
2018-06-28T02:21:12.972Z,92.69
2018-06-28T02:22:12.949Z,92.88
2018-06-28T02:23:12.682Z,92.78
2018-06-28T02:24:12.939Z,93.16
2018-06-28T02:25:12.925Z,92.78
2018-06-28T02:26:12.631Z,92.59
2018-06-28T02:27:12.630Z,92.4
2018-06-28T02:28:12.881Z,92.4
2018-06-28T02:29:12.868Z,92.02
2018-06-28T02:30:12.847Z,91.92
2018-06-28T02:31:12.579Z,92.59
2018-06-28T02:32:12.828Z,91.44
2018-06-28T02:33:12.811Z,91.83
2018-06-28T02:34:12.800Z,91.63
2018-06-28T02:35:12.784Z,91.44
2018-06-28T02:36:12.775Z,91.63
2018-06-28T02:37:12.496Z,91.44
2018-06-28T02:38:12.753Z,91.63
2018-06-28T02:39:12.465Z,91.83
2018-06-28T02:40:12.715Z,91.63
2018-06-28T02:41:12.436Z,92.4
2018-06-28T02:42:12.427Z,92.59
2018-06-28T02:43:12.686Z,92.78
2018-06-28T02:44:12.483Z,92.88
2018-06-28T02:45:12.651Z,92.78
2018-06-28T02:46:12.638Z,92.93
2018-06-28T02:47:12.623Z,93.16
2018-06-28T02:48:12.619Z,93.07
2018-06-28T02:49:12.597Z,92.88
2018-06-28T02:50:12.657Z,92.69
2018-06-28T02:51:12.570Z,92.93
2018-06-28T02:52:12.568Z,93.02
2018-06-28T02:53:12.553Z,91.88
2018-06-28T02:54:12.529Z,91.97
2018-06-28T02:55:12.512Z,91.59
2018-06-28T02:56:12.505Z,91.68
2018-06-28T02:57:12.492Z,90.92
2018-06-28T02:58:12.225Z,90.92
2018-06-28T02:59:12.207Z,90.73
2018-06-28T03:00:12.459Z,90.44
2018-06-28T03:01:12.177Z,90.25
2018-06-28T03:02:12.430Z,89.96
2018-06-28T03:03:12.420Z,90.82
2018-06-28T03:04:12.403Z,90.73
2018-06-28T03:05:12.117Z,91.3
2018-06-28T03:06:12.109Z,91.11
2018-06-28T03:07:12.360Z,91.3
2018-06-28T03:08:12.077Z,91.02
2018-06-28T03:09:12.329Z,91.02
2018-06-28T03:10:12.320Z,91.02
2018-06-28T03:11:12.051Z,90.34
2018-06-28T03:12:12.289Z,89.96
2018-06-28T03:13:12.010Z,90.44
2018-06-28T03:14:12.272Z,90.34
2018-06-28T03:15:12.248Z,90.63
2018-06-28T03:16:12.235Z,90.34
2018-06-28T03:17:12.239Z,90.16
2018-06-28T03:18:12.218Z,89.48
2018-06-28T03:19:12.198Z,89.1
2018-06-28T03:20:12.191Z,89.39
2018-06-28T03:21:11.915Z,89.29
2018-06-28T03:22:12.173Z,89.1
2018-06-28T03:23:11.875Z,89.48
2018-06-28T03:24:12.132Z,89.2
2018-06-28T03:25:12.116Z,89.39
2018-06-28T03:26:12.098Z,89.48
2018-06-28T03:27:12.093Z,88.62
2018-06-28T03:28:12.074Z,88.53
2018-06-28T03:29:12.067Z,88.62
2018-06-28T03:30:11.788Z,88.72
2018-06-28T03:31:12.217Z,88.62
2018-06-28T03:32:12.221Z,88.43
2018-06-28T03:33:12.002Z,88.72
2018-06-28T03:34:11.991Z,88.81
2018-06-28T03:35:11.993Z,88.53
2018-06-28T03:36:11.968Z,88.53
2018-06-28T03:37:11.949Z,88.43
2018-06-28T03:38:11.942Z,88.43
2018-06-28T03:39:11.661Z,88.91
2018-06-28T03:40:11.651Z,88.43
2018-06-28T03:41:11.899Z,88.62
2018-06-28T03:42:11.885Z,88.53
2018-06-28T03:43:11.609Z,88.34
2018-06-28T03:44:11.862Z,88.81
2018-06-28T03:45:11.579Z,88.43
2018-06-28T03:46:11.567Z,88.72
2018-06-28T03:47:11.821Z,88.81
2018-06-28T03:48:11.857Z,89.2
2018-06-28T03:49:11.796Z,88.81
2018-06-28T03:50:11.512Z,89.1
2018-06-28T03:51:11.762Z,89.39
2018-06-28T03:52:11.758Z,89.39
2018-06-28T03:53:11.470Z,89.2
2018-06-28T03:54:11.724Z,89.29
2018-06-28T03:55:11.445Z,89.29
2018-06-28T03:56:11.437Z,89.2
2018-06-28T03:57:11.430Z,89.2
2018-06-28T03:58:11.727Z,89.2
2018-06-28T03:59:11.654Z,89.01
2018-06-28T04:00:11.653Z,89.2
2018-06-28T04:01:11.362Z,88.43
2018-06-28T04:02:11.629Z,88.15
2018-06-28T04:03:11.350Z,87.86
2018-06-28T04:04:11.325Z,87.29
2018-06-28T04:05:11.576Z,87.38
2018-06-28T04:06:11.583Z,86.9
2018-06-28T04:07:11.287Z,86.61
2018-06-28T04:08:11.540Z,85.38
2018-06-28T04:09:11.257Z,85.57
2018-06-28T04:10:11.505Z,84.52
2018-06-28T04:11:11.503Z,83.94
2018-06-28T04:12:11.487Z,83.94
2018-06-28T04:13:11.470Z,84.13
2018-06-28T04:14:11.456Z,83.65
2018-06-28T04:15:11.446Z,83.75
2018-06-28T04:16:11.162Z,83.94
2018-06-28T04:17:11.416Z,84.03
2018-06-28T04:18:11.146Z,83.56
2018-06-28T04:19:11.123Z,83.37
2018-06-28T04:20:11.374Z,83.08
2018-06-28T04:21:11.368Z,82.51
2018-06-28T04:22:11.088Z,82.22
2018-06-28T04:23:11.339Z,82.51
2018-06-28T04:24:11.323Z,81.93
2018-06-28T04:25:11.309Z,81.74
2018-06-28T04:26:11.296Z,81.45
2018-06-28T04:27:11.280Z,81.36
2018-06-28T04:28:11.007Z,81.45
2018-06-28T04:29:10.985Z,81.36
2018-06-28T04:30:10.975Z,81.36
2018-06-28T04:31:11.230Z,82.12
2018-06-28T04:32:11.209Z,82.51
2018-06-28T04:33:10.978Z,82.89
2018-06-28T04:34:10.925Z,82.41
2018-06-28T04:35:10.912Z,83.46
2018-06-28T04:36:11.162Z,83.56
2018-06-28T04:37:10.891Z,83.5
2018-06-28T04:38:11.142Z,83.46
2018-06-28T04:39:11.116Z,83.69
2018-06-28T04:40:11.124Z,83.6
2018-06-28T04:41:11.095Z,83.6
2018-06-28T04:42:11.084Z,83.22
2018-06-28T04:43:10.809Z,82.93
2018-06-28T04:44:11.052Z,83.03
2018-06-28T04:45:11.039Z,83.12
2018-06-28T04:46:11.025Z,83.12
2018-06-28T04:47:10.745Z,82.26
2018-06-28T04:48:10.742Z,81.02
2018-06-28T04:49:10.987Z,81.02
2018-06-28T04:50:10.715Z,81.49
2018-06-28T04:51:10.958Z,81.68
2018-06-28T04:52:10.682Z,81.68
2018-06-28T04:53:10.668Z,81.59
2018-06-28T04:54:10.920Z,81.3
2018-06-28T04:55:10.645Z,81.49
2018-06-28T04:56:10.898Z,81.05
2018-06-28T04:57:10.626Z,80.96
2018-06-28T04:58:10.606Z,81.44
2018-06-28T04:59:10.862Z,80.87
2018-06-28T05:00:10.580Z,81.15
2018-06-28T05:01:10.880Z,80.96
2018-06-28T05:02:10.549Z,80.87
2018-06-28T05:03:10.546Z,81.25
2018-06-28T05:04:10.525Z,81.05
2018-06-28T05:05:10.537Z,80.96
2018-06-28T05:06:10.501Z,81.15
2018-06-28T05:07:10.962Z,81.44
2018-06-28T05:08:10.748Z,82.24
2018-06-28T05:09:10.723Z,83.16
2018-06-28T05:10:10.449Z,83.87
2018-06-28T05:11:10.703Z,83.78
2018-06-28T05:12:10.423Z,83.78
2018-06-28T05:13:10.416Z,84.16
2018-06-28T05:14:10.660Z,83.59
2018-06-28T05:15:10.657Z,84.45
2018-06-28T05:16:10.377Z,84.06
2018-06-28T05:17:10.763Z,83.87
2018-06-28T05:18:10.350Z,83.78
2018-06-28T05:19:10.605Z,85.06
2018-06-28T05:20:10.591Z,85.74
2018-06-28T05:21:10.308Z,86.12
2018-06-28T05:22:10.297Z,86.41
2018-06-28T05:23:10.284Z,87.27
2018-06-28T05:24:10.544Z,87.46
2018-06-28T05:25:10.265Z,86.98
2018-06-28T05:26:10.512Z,87.46
2018-06-28T05:27:10.500Z,87.27
2018-06-28T05:28:10.227Z,86.98
2018-06-28T05:29:10.559Z,87.46
2018-06-28T05:30:10.462Z,87.27
2018-06-28T05:31:10.448Z,87.65
2018-06-28T05:32:10.379Z,87.55
2018-06-28T05:33:10.434Z,88.23
2018-06-28T05:34:10.414Z,87.7
2018-06-28T05:35:10.135Z,87.5
2018-06-28T05:36:10.130Z,87.88
2018-06-28T05:37:10.374Z,88.08
2018-06-28T05:38:10.368Z,88.56
2018-06-28T05:39:10.097Z,87.79
2018-06-28T05:40:10.339Z,88.27
2018-06-28T05:41:10.342Z,87.79
2018-06-28T05:42:10.053Z,89.8
2018-06-28T05:43:10.336Z,89.8
2018-06-28T05:44:10.293Z,89.42
2018-06-28T05:45:10.289Z,89.42
2018-06-28T05:46:10.272Z,88.75
2018-06-28T05:47:10.070Z,88.89
2018-06-28T05:48:10.248Z,89.56
2018-06-28T05:49:09.976Z,88.89
2018-06-28T05:50:10.220Z,89.27
2018-06-28T05:51:10.210Z,89.27
2018-06-28T05:52:10.210Z,88.79
2018-06-28T05:53:10.194Z,88.98
2018-06-28T05:54:09.922Z,90.14
2018-06-28T05:55:10.164Z,90.61
2018-06-28T05:56:10.150Z,90.9
2018-06-28T05:57:09.874Z,91.38
2018-06-28T05:58:09.867Z,91.48
2018-06-28T05:59:10.116Z,91.86
2018-06-28T06:00:09.837Z,92.48
2018-06-28T06:01:09.849Z,94.02
2018-06-28T06:02:10.091Z,93.82
2018-06-28T06:03:10.089Z,93.06
2018-06-28T06:04:10.056Z,93.54
2018-06-28T06:05:09.785Z,93.35
2018-06-28T06:06:09.778Z,94.79
2018-06-28T06:07:10.035Z,95.26
2018-06-28T06:08:10.023Z,95.55
2018-06-28T06:09:09.737Z,96.08
2018-06-28T06:10:10.003Z,95.6
2018-06-28T06:11:09.716Z,96.27
2018-06-28T06:12:09.816Z,96.47
2018-06-28T06:13:09.963Z,97.61
2018-06-28T06:14:09.680Z,97.42
2018-06-28T06:15:09.931Z,97.24
2018-06-28T06:16:09.946Z,97.52
2018-06-28T06:17:09.913Z,97.28
2018-06-28T06:18:09.635Z,98.82
2018-06-28T06:19:09.893Z,99.78
2018-06-28T06:20:09.611Z,99.99
2018-06-28T06:21:09.873Z,99.99
2018-06-28T06:22:09.747Z,99.99
2018-06-28T06:24:09.842Z,99.99
2018-06-28T06:25:09.560Z,99.99
2018-06-28T06:26:09.813Z,99.99
2018-06-28T06:27:09.813Z,99.99
2018-06-28T06:28:09.800Z,99.99
2018-06-28T06:29:09.527Z,99.99
2018-06-28T06:30:09.775Z,99.99
2018-06-28T06:31:10.518Z,99.99
2018-06-28T06:32:09.761Z,99.99
2018-06-28T06:33:09.962Z,99.99
2018-06-28T06:34:09.940Z,99.99
2018-06-28T06:35:09.463Z,99.99
2018-06-28T06:36:09.739Z,99.99
2018-06-28T06:37:09.445Z,99.99
2018-06-28T06:38:09.448Z,99.99
2018-06-28T06:39:09.428Z,99.99
2018-06-28T06:40:09.704Z,99.99
2018-06-28T06:41:09.772Z,99.99
2018-06-28T06:42:09.679Z,99.99
2018-06-28T06:43:09.657Z,99.99
2018-06-28T06:44:09.642Z,99.99
2018-06-28T06:45:09.375Z,99.99
2018-06-28T06:46:09.357Z,99.99
2018-06-28T06:47:09.616Z,99.99
2018-06-28T06:48:09.617Z,99.99
2018-06-28T06:49:09.600Z,99.99
2018-06-28T06:50:09.322Z,99.99
2018-06-28T06:51:09.317Z,99.99
2018-06-28T06:52:09.566Z,99.99
2018-06-28T06:53:09.609Z,99.99
2018-06-28T06:54:09.547Z,99.99
2018-06-28T06:55:09.549Z,99.99
2018-06-28T06:56:09.390Z,99.99
2018-06-28T06:57:09.260Z,99.99
2018-06-28T06:58:09.517Z,99.99
2018-06-28T06:59:09.510Z,99.98
2018-06-28T07:00:09.247Z,91.33
2018-06-28T07:01:09.230Z,85.61
2018-06-28T07:02:09.221Z,79.78
2018-06-28T07:03:09.522Z,74.85
2018-06-28T07:04:09.468Z,73.37
2018-06-28T07:05:09.459Z,69.94
2018-06-28T07:06:09.449Z,65.53
2018-06-28T07:07:09.452Z,64.1
2018-06-28T07:08:09.435Z,62.76
2018-06-28T07:09:09.164Z,61.6
2018-06-28T07:10:09.658Z,62.21
2018-06-28T07:11:09.416Z,61.17
2018-06-28T07:12:09.402Z,61.63
2018-06-28T07:13:09.130Z,60.65
2018-06-28T07:14:09.128Z,60.75
2018-06-28T07:15:09.392Z,59.28
2018-06-28T07:16:09.107Z,58.92
2018-06-28T07:17:09.367Z,57.85
2018-06-28T07:18:09.098Z,57.68
2018-06-28T07:19:09.346Z,58.76
2018-06-28T07:20:09.344Z,56.96
2018-06-28T07:21:09.079Z,56.01
2018-06-28T07:22:09.324Z,56.3
2018-06-28T07:23:09.388Z,54.67
2018-06-28T07:24:09.314Z,55.26
2018-06-28T07:25:09.050Z,54.96
2018-06-28T07:26:09.045Z,54.89
2018-06-28T07:27:09.304Z,53.91
2018-06-28T07:28:09.311Z,54.23
2018-06-28T07:29:09.312Z,53.67
2018-06-28T07:30:09.086Z,52.4
2018-06-28T07:31:09.288Z,52.42
2018-06-28T07:32:09.525Z,51.93
2018-06-28T07:33:09.404Z,50.59
2018-06-28T07:34:09.577Z,51.56
2018-06-28T07:35:09.408Z,49.8
2018-06-28T07:36:09.418Z,51.59
2018-06-28T07:37:09.004Z,50.12
2018-06-28T07:38:09.007Z,47.99
2018-06-28T07:39:09.263Z,49.53
2018-06-28T07:40:08.997Z,50.24
2018-06-28T07:41:09.257Z,48.57
2018-06-28T07:42:08.992Z,50.37
2018-06-28T07:43:08.989Z,48.82
2018-06-28T07:44:08.991Z,47.05
2018-06-28T07:45:09.256Z,47.07
2018-06-28T07:46:08.986Z,46.88
2018-06-28T07:47:09.255Z,47.27
2018-06-28T07:48:09.258Z,46.7
2018-06-28T07:49:09.017Z,47.09
2018-06-28T07:50:08.988Z,47.51
2018-06-28T07:51:09.382Z,45.74
2018-06-28T07:52:09.254Z,46.13
2018-06-28T07:53:08.996Z,45.25
2018-06-28T07:54:08.994Z,45.94
2018-06-28T07:55:09.001Z,45.84
2018-06-28T07:56:08.990Z,45.86
2018-06-28T07:57:09.260Z,44.88
2018-06-28T07:58:08.997Z,46.37
2018-06-28T07:59:08.997Z,45.68
2018-06-28T08:00:09.582Z,44.6
2018-06-28T08:01:09.019Z,44.4
2018-06-28T08:02:09.281Z,44.09
2018-06-28T08:03:09.007Z,44.11
2018-06-28T08:04:09.393Z,43.71
2018-06-28T08:05:09.276Z,43.23
2018-06-28T08:06:09.301Z,43.89
2018-06-28T08:07:09.016Z,44.36
2018-06-28T08:08:09.015Z,43.77
2018-06-28T08:09:09.018Z,44.07
2018-06-28T08:10:09.285Z,44.36
2018-06-28T08:11:09.296Z,44.85
2018-06-28T08:12:09.298Z,43.4
2018-06-28T08:13:09.292Z,44.19
2018-06-28T08:14:09.306Z,43.99
2018-06-28T08:15:09.039Z,43.99
2018-06-28T08:16:09.310Z,44.09
2018-06-28T08:17:09.311Z,42.73
2018-06-28T08:18:09.045Z,43.62
2018-06-28T08:19:09.317Z,42.83
2018-06-28T08:20:09.317Z,43.42
2018-06-28T08:21:09.067Z,42.46
2018-06-28T08:22:09.061Z,42.76
2018-06-28T08:23:09.326Z,42.77
2018-06-28T08:24:09.065Z,42.47
2018-06-28T08:25:09.074Z,43.05
2018-06-28T08:26:09.074Z,42.28
2018-06-28T08:27:09.346Z,41.09
2018-06-28T08:28:09.139Z,41.78
2018-06-28T08:29:09.349Z,41.3
2018-06-28T08:30:09.355Z,41.27
2018-06-28T08:31:09.103Z,42.07
2018-06-28T08:32:09.361Z,42.16
2018-06-28T08:33:09.364Z,43.2
2018-06-28T08:34:09.375Z,43.77
2018-06-28T08:35:09.374Z,44.15
2018-06-28T08:36:09.540Z,44.69
2018-06-28T08:37:09.112Z,44.18
2018-06-28T08:38:09.387Z,44.47
2018-06-28T08:39:09.120Z,45.21
2018-06-28T08:40:09.702Z,45.56
2018-06-28T08:41:09.397Z,45.73
2018-06-28T08:42:09.391Z,47.28
2018-06-28T08:43:09.393Z,47.28
2018-06-28T08:44:09.391Z,47.94
2018-06-28T08:45:09.401Z,47.85
2018-06-28T08:46:09.401Z,47.82
2018-06-28T08:47:09.404Z,48.77
2018-06-28T08:48:09.400Z,49.32
2018-06-28T08:49:09.660Z,50.1
2018-06-28T08:50:09.416Z,51.61
2018-06-28T08:51:09.433Z,51.7
2018-06-28T08:52:09.401Z,52.63
2018-06-28T08:53:09.406Z,53.7
2018-06-28T08:54:09.408Z,53.97
2018-06-28T08:55:09.144Z,54.82
2018-06-28T08:56:09.137Z,55.4
2018-06-28T08:57:09.138Z,55.27
2018-06-28T08:58:09.156Z,56.05
2018-06-28T08:59:09.397Z,56.41
2018-06-28T09:00:09.132Z,57.46
2018-06-28T09:01:09.394Z,58.04
2018-06-28T09:02:09.401Z,58.04
2018-06-28T09:03:09.131Z,57.2
2018-06-28T09:04:09.134Z,55.86
2018-06-28T09:05:09.401Z,53.67
2018-06-28T09:06:09.133Z,52.56
2018-06-28T09:07:09.133Z,51.63
2018-06-28T09:08:09.129Z,50.12
2018-06-28T09:09:09.139Z,49.97
2018-06-28T09:10:09.397Z,48.16
2018-06-28T09:11:09.135Z,48.16
2018-06-28T09:12:09.407Z,47.79
2018-06-28T09:13:09.411Z,47.01
2018-06-28T09:14:09.400Z,47.13
2018-06-28T09:15:09.411Z,46.86
2018-06-28T09:16:09.417Z,46.66
2018-06-28T09:17:09.419Z,46.59
2018-06-28T09:18:09.153Z,44.55
2018-06-28T09:19:09.419Z,45.04
2018-06-28T09:20:09.162Z,45.04
2018-06-28T09:21:09.419Z,45.63
2018-06-28T09:22:09.161Z,45.7
2018-06-28T09:23:09.310Z,45.31
2018-06-28T09:24:09.171Z,45.41
2018-06-28T09:25:09.172Z,46.59
2018-06-28T09:26:09.439Z,47.16
2018-06-28T09:27:09.443Z,48.8
2018-06-28T09:28:09.443Z,48.6
2018-06-28T09:29:09.181Z,49.14
2018-06-28T09:30:09.446Z,50.37
2018-06-28T09:31:09.449Z,50.93
2018-06-28T09:32:09.385Z,50.02
2018-06-28T09:33:09.186Z,50.71
2018-06-28T09:34:09.457Z,51.76
2018-06-28T09:35:09.191Z,52.12
2018-06-28T09:36:09.454Z,52.87
2018-06-28T09:37:09.451Z,54.41
2018-06-28T09:38:09.194Z,55.82
2018-06-28T09:39:09.195Z,55.16
2018-06-28T09:40:09.455Z,53.5
2018-06-28T09:41:09.461Z,53.34
2018-06-28T09:42:09.195Z,51.8
2018-06-28T09:43:09.461Z,51.92
2018-06-28T09:44:09.459Z,50.78
2018-06-28T09:45:09.475Z,50.22
2018-06-28T09:46:09.207Z,50.83
2018-06-28T09:47:09.467Z,51.81
2018-06-28T09:48:09.477Z,51.71
2018-06-28T09:49:09.201Z,51.1
2018-06-28T09:50:09.206Z,52.66
2018-06-28T09:51:09.472Z,52.47
2018-06-28T09:52:09.475Z,51.98
2018-06-28T09:53:09.480Z,51.66
2018-06-28T09:54:09.483Z,52.61
2018-06-28T09:55:09.481Z,52.61
2018-06-28T09:56:09.479Z,52.7
2018-06-28T09:57:09.486Z,54.93
2018-06-28T09:58:09.225Z,54.8
2018-06-28T09:59:09.222Z,53.92
2018-06-28T10:00:09.276Z,53.6
2018-06-28T10:01:09.487Z,54.38
2018-06-28T10:02:09.486Z,55.23
2018-06-28T10:03:09.500Z,56.7
2018-06-28T10:04:09.227Z,56.4
2018-06-28T10:05:09.487Z,56.11
2018-06-28T10:06:09.227Z,56.79
2018-06-28T10:07:09.486Z,56.99
2018-06-28T10:08:09.492Z,57.18
2018-06-28T10:09:09.481Z,55.43
2018-06-28T10:10:09.488Z,55.75
2018-06-28T10:11:09.256Z,55.65
2018-06-28T10:12:09.480Z,55.85
2018-06-28T10:13:09.505Z,55.94
2018-06-28T10:14:09.208Z,56.56
2018-06-28T10:15:09.529Z,53.75
2018-06-28T10:16:09.483Z,53.44
2018-06-28T10:17:09.478Z,53.83
2018-06-28T10:18:09.453Z,53.92
2018-06-28T10:19:09.267Z,53.63
2018-06-28T10:20:09.756Z,53.73
2018-06-28T10:21:09.470Z,54.21
2018-06-28T10:22:09.557Z,55.48
2018-06-28T10:23:09.211Z,55.46
2018-06-28T10:24:09.469Z,54.11
2018-06-28T10:25:09.712Z,53.56
2018-06-28T10:26:09.203Z,53.85
2018-06-28T10:27:09.201Z,52.61
2018-06-28T10:28:09.202Z,52.27
2018-06-28T10:29:09.216Z,51.59
2018-06-28T10:30:09.476Z,50.56
2018-06-28T10:31:09.481Z,49.9
2018-06-28T10:32:09.485Z,48.68
2018-06-28T10:33:09.489Z,48.58
2018-06-28T10:34:09.483Z,47.52
2018-06-28T10:35:09.229Z,47.45
2018-06-28T10:36:09.497Z,47.17
2018-06-28T10:37:09.501Z,45.26
2018-06-28T10:38:09.498Z,44.96
2018-06-28T10:39:09.504Z,44.96
2018-06-28T10:40:09.241Z,45.06
2018-06-28T10:41:09.520Z,45.28
2018-06-28T10:42:09.526Z,45.6
2018-06-28T10:43:09.257Z,44.24
2018-06-28T10:44:09.529Z,44.26
2018-06-28T10:45:09.273Z,44.09
2018-06-28T10:46:09.555Z,42.41
2018-06-28T10:47:09.547Z,41.53
2018-06-28T10:48:09.290Z,41.9
2018-06-28T10:49:09.589Z,42.52
2018-06-28T10:50:09.567Z,40.96
2018-06-28T10:51:09.580Z,40.27
2018-06-28T10:52:09.577Z,43.52
2018-06-28T10:53:09.320Z,41.57
2018-06-28T10:54:09.731Z,41.57
2018-06-28T10:55:09.600Z,42.07
2018-06-28T10:56:09.614Z,41.09
2018-06-28T10:57:09.349Z,39.73
2018-06-28T10:58:09.351Z,40.63
2018-06-28T10:59:09.366Z,40.92
2018-06-28T11:00:09.366Z,39.56
2018-06-28T11:01:09.654Z,39.17
2018-06-28T11:02:09.646Z,39.17
2018-06-28T11:03:09.397Z,38.77
2018-06-28T11:04:09.666Z,38.96
2018-06-28T11:05:09.680Z,39.25
2018-06-28T11:06:09.680Z,39.34
2018-06-28T11:07:09.682Z,40.21
2018-06-28T11:08:09.435Z,39.79
2018-06-28T11:09:09.712Z,40.08
2018-06-28T11:10:09.715Z,40.05
2018-06-28T11:11:09.453Z,41.33
2018-06-28T11:12:09.724Z,40.17
2018-06-28T11:13:09.476Z,40.96
2018-06-28T11:14:09.474Z,40.56
2018-06-28T11:15:09.480Z,41.65
2018-06-28T11:16:09.756Z,40.86
2018-06-28T11:17:09.767Z,41.38
2018-06-28T11:18:09.505Z,40.48
2018-06-28T11:19:09.519Z,40.78
2018-06-28T11:20:09.524Z,40.76
2018-06-28T11:21:09.536Z,41.06
2018-06-28T11:22:09.801Z,41.25
2018-06-28T11:23:09.543Z,40.86
2018-06-28T11:24:09.815Z,40.47
2018-06-28T11:25:09.929Z,40.78
2018-06-28T11:26:09.572Z,42.04
2018-06-28T11:27:09.579Z,41.27
2018-06-28T11:28:09.855Z,41.45
2018-06-28T11:29:09.866Z,41.75
2018-06-28T11:30:09.864Z,41.25
2018-06-28T11:31:10.080Z,41.47
2018-06-28T11:32:09.884Z,40.8
2018-06-28T11:33:09.887Z,42.16
2018-06-28T11:34:10.046Z,41.59
2018-06-28T11:35:09.908Z,41.22
2018-06-28T11:36:09.662Z,40.82
2018-06-28T11:37:09.938Z,41.33
2018-06-28T11:38:09.934Z,41.43
2018-06-28T11:39:09.941Z,39.86
2018-06-28T11:40:09.946Z,39.86
2018-06-28T11:41:09.956Z,40.13
2018-06-28T11:42:09.957Z,40.33
2018-06-28T11:43:09.702Z,39.89
2018-06-28T11:44:09.968Z,40.96
2018-06-28T11:45:09.989Z,41.53
2018-06-28T11:46:09.728Z,40.66
2018-06-28T11:47:09.996Z,39.31
2018-06-28T11:48:09.739Z,39.89
2018-06-28T11:49:09.748Z,39.72
2018-06-28T11:50:10.021Z,40.61
2018-06-28T11:51:10.035Z,40.11
2018-06-28T11:52:09.837Z,40.21
2018-06-28T11:53:09.777Z,39.25
2018-06-28T11:54:09.789Z,39.44
2018-06-28T11:55:10.059Z,39.76
2018-06-28T11:56:09.810Z,40.15
2018-06-28T11:57:10.073Z,40.27
2018-06-28T11:58:10.088Z,39.18
2018-06-28T11:59:09.826Z,40.17
2018-06-28T12:00:09.831Z,39.09
2018-06-28T12:01:10.113Z,38.69
2018-06-28T12:02:10.123Z,39.28
2018-06-28T12:03:10.129Z,38.02
2018-06-28T12:04:10.135Z,37.43
2018-06-28T12:05:10.155Z,38.71
2018-06-28T12:06:10.150Z,37.62
2018-06-28T12:07:09.893Z,37.62
2018-06-28T12:08:10.167Z,37.64
2018-06-28T12:09:09.912Z,38.12
2018-06-28T12:10:10.191Z,39.95
2018-06-28T12:11:10.194Z,40.78
2018-06-28T12:12:10.208Z,42.22
2018-06-28T12:13:10.215Z,41.8
2018-06-28T12:14:10.217Z,41.83
2018-06-28T12:15:10.224Z,40.86
2018-06-28T12:16:09.971Z,41.08
2018-06-28T12:17:09.973Z,40.51
2018-06-28T12:18:10.245Z,39.34
2018-06-28T12:19:09.987Z,40.43
2018-06-28T12:20:10.263Z,39.95
2018-06-28T12:21:10.273Z,39.95
2018-06-28T12:22:10.014Z,40.53
2018-06-28T12:23:10.282Z,39.44
2018-06-28T12:24:10.029Z,39.56
2018-06-28T12:25:10.299Z,39.26
2018-06-28T12:26:10.303Z,39.06
2018-06-28T12:27:10.313Z,39.3
2018-06-28T12:28:10.114Z,38.13
2018-06-28T12:29:10.341Z,39.12
2018-06-28T12:30:10.348Z,39.87
2018-06-28T12:31:10.148Z,38.87
2018-06-28T12:32:10.097Z,38.67
2018-06-28T12:33:10.095Z,38.65
2018-06-28T12:34:10.366Z,39.64
2018-06-28T12:35:10.379Z,39.15
2018-06-28T12:36:10.126Z,40.19
2018-06-28T12:37:10.391Z,39.5
2018-06-28T12:38:10.400Z,38.91
2018-06-28T12:39:10.455Z,39.42
2018-06-28T12:40:10.156Z,39.32
2018-06-28T12:41:10.424Z,38.85
2018-06-28T12:42:10.431Z,38.85
2018-06-28T12:43:10.447Z,37.59
2018-06-28T12:44:10.184Z,39.17
2018-06-28T12:45:10.187Z,38.47
2018-06-28T12:46:10.203Z,39.48
2018-06-28T12:47:10.466Z,39.11
2018-06-28T12:48:10.476Z,38.18
2018-06-28T12:49:10.222Z,39.62
2018-06-28T12:50:10.486Z,39.89
2018-06-28T12:51:10.496Z,40.09
2018-06-28T12:52:10.503Z,38.89
2018-06-28T12:53:10.519Z,39.18
2018-06-28T12:54:10.268Z,39.2
2018-06-28T12:55:10.527Z,39.12